x

West Sea Otter (46204) Wave Buoy

4:00pm - Sun 29th Mar 2015 All times are PDT. -7 hours from GMT.

  • Sig Wave height 9.8ft
  • Peak Period 14s
  • Wind
    11mph, 13mph gusts
  • Sea Temp 50°f
  • Air Temp 51°f
  • Sea Pressure 1019.1mb
  • West Sea Otter
  • West Sea Otter

More Historic Weather Station data

Upgrade to MSW Pro to gain access to the past 30 days of data for over 8000 Wavebouys and Weather Stations around the globe.

Join Pro

Comparision Forecast

View Surf forecast
   
Sun 03/29 4:00pm 10ft 14s 11 13 mph 1019.1mb 50f 51f
3:00pm 10ft 11s 9 11 mph 1019.4mb 50f 51f
2:00pm 10ft 11s 11 16 mph 1019.1mb 50f 51f
1:00pm 11ft 12s 11 16 mph 1018.7mb 50f 51f
12:00pm 10.5ft 11s 11 13 mph 1018.1mb 50f 51f
11:00am 11ft 11s 13 18 mph 1017.9mb 49f 51f
9:00am 10ft 11s 16 20 mph 1016.1mb 49f 50f
8:00am 11ft 11s 18 20 mph 1015.5mb 49f 50f
7:00am 10.5ft 11s 16 20 mph 1014.9mb 49f 50f
6:00am 11ft 11s 18 20 mph 1014.4mb 49f 50f
5:00am 11ft 10s 20 25 mph 1013.8mb 49f 50f
4:00am 11ft 10s 18 20 mph 1013.3mb 49f 49f
3:00am 11ft 11s 16 20 mph 1012.6mb 49f 49f
2:00am 11.5ft 11s 16 20 mph 1012.3mb 49f 50f
1:00am  -   -  18
mph
- - 50f
12:00am 11ft 11s 20 27 mph 1012.5mb 49f 50f
Sat 03/28 11:00pm 12ft 11s 18 25 mph 1012.9mb 49f 49f
10:00pm 11ft 9s 18 22 mph 1013.2mb 49f 49f
9:00pm 11ft 9s 13 16 mph 1013.5mb 49f 50f
8:00pm 10.5ft 8s 13 16 mph 1013.4mb 49f 50f
7:00pm 11.5ft 7s 20 27 mph 1013.1mb 49f 50f
6:00pm 13ft 7s 22 27 mph 1012.3mb 49f 51f
5:00pm 14ft 8s 25 31 mph 1011.7mb 49f 51f
3:00pm 12ft 7s 36 45 mph 1011.4mb 49f 48f
2:00pm 10.5ft 6s 36 45 mph 1012mb 49f 48f
1:00pm 9.5ft 6s 31 36 mph 1013.4mb 49f 49f
12:00pm 9ft 11s 31 38 mph 1014.2mb 49f 48f
11:00am 8ft 11s 31 38 mph 1014.7mb 49f 48f
10:00am 7ft 10s 29 36 mph 1015mb 49f 48f
9:00am 7ft 11s 27 34 mph 1015.2mb 49f 49f
8:00am 7ft 11s 22 27 mph 1015.6mb 49f 49f
6:00am 6.5ft 11s 13
mph
1015.7mb 49f 49f
5:00am 7ft 11s 9 11 mph 1015.7mb 49f 49f
4:00am 7ft 11s 9 11 mph 1015.4mb 49f 49f
3:00am 7ft 11s 9 11 mph 1015.4mb 49f 49f
2:00am 8ft 11s 11 16 mph 1014.8mb 49f 49f
1:00am 7ft 11s 13 18 mph 1014.7mb 49f 49f
12:00am 8ft 12s 16 20 mph 1013.9mb 49f 49f
Fri 03/27 11:00pm 8ft 11s 18 22 mph 1013mb 49f 49f
10:00pm 9ft 12s 13 16 mph 1011.9mb 49f 49f
9:00pm 8.5ft 12s 13 18 mph 1011.4mb 49f 49f
8:00pm 8ft 10s 13 16 mph 1010.8mb 49f 49f
7:00pm 9ft 12s 18 20 mph 1009.6mb 49f 48f
6:00pm 9.5ft 11s 18 22 mph 1010.1mb 49f 48f
5:00pm 9ft 11s 18 20 mph 1010.5mb 49f 47f
4:00pm 8.5ft 12s 18 20 mph 1010.5mb 49f 47f
3:00pm 9ft 12s 18 22 mph 1010.4mb 49f 47f
2:00pm 9ft 13s 16 20 mph 1010.6mb 49f 47f
1:00pm 9.5ft 13s 18 20 mph 1010.7mb 49f 47f
12:00pm 9.5ft 14s 20 22 mph 1010mb 49f 47f
11:00am 9ft 14s 13 18 mph 1011.1mb 49f 46f
9:00am 10ft 14s 13 16 mph 1011.7mb 50f 47f
8:00am 10.5ft 12s 13 16 mph 1012.3mb 49f 47f
6:00am 11.5ft 12s 16 20 mph 1012.9mb 49f 47f
5:00am 11ft 12s 13 18 mph 1013.6mb 49f 47f
4:00am 10.5ft 11s 13 16 mph 1014.3mb 49f 47f
3:00am 11ft 11s 13 18 mph 1014.8mb 50f 47f
2:00am 11ft 11s 13
mph
1014.6mb 50f 47f
1:00am 9.5ft 11s 9 13 mph 1014.5mb 50f 48f
Thu 03/26 11:00pm 11ft 12s 22 27 mph 1013.7mb 50f 51f
10:00pm 11ft 11s 22 29 mph 1013.6mb 50f 51f
8:00pm 10.5ft 12s 27 34 mph 1013.3mb 50f 51f
7:00pm 10ft 12s 25 29 mph 1013.7mb 49f 52f
6:00pm 9ft 12s 16 18 mph 1014.6mb 49f 51f
5:00pm 10ft 11s 4 7 mph 1016mb 49f 50f
4:00pm 11ft 12s 9 13 mph 1016.9mb 49f 48f
3:00pm 10ft 10s 11 16 mph 1017.1mb 50f 48f
1:00pm 10ft 10s 11 13 mph 1017.8mb 49f 50f
12:00pm 10ft 11s 13 16 mph 1018mb 49f 51f
11:00am 9ft 10s 11 13 mph 1018mb 49f 51f
10:00am 9.5ft 11s 13 18 mph 1017.5mb 49f 51f
9:00am 9ft 11s 16 18 mph 1016.8mb 49f 51f
8:00am 9ft 11s 16 18 mph 1016.5mb 49f 51f
7:00am 8.5ft 11s 18 22 mph 1016mb 49f 51f
6:00am 9ft 11s 16 20 mph 1015.3mb 49f 51f
5:00am 9ft 11s 22 27 mph 1014.8mb 49f 51f
4:00am 9ft 11s 22 25 mph 1014mb 49f 51f
3:00am 8ft 11s 22 27 mph 1013.7mb 49f 51f
2:00am 9ft 11s 25 29 mph 1013.6mb 49f 49f
1:00am 9ft 11s 27 34 mph 1013.5mb 49f 49f